sensor_id;sensor_type;location;lat;lon;timestamp;pressure;altitude;pressure_sealevel;temperature
74043;BMP280;62384;53.600;10.040;2022-12-31T00:01:00;-3914.81;;;11.19
74043;BMP280;62384;53.600;10.040;2022-12-31T00:03:26;-3584.94;;;11.28
74043;BMP280;62384;53.600;10.040;2022-12-31T00:05:52;-3584.78;;;11.27
74043;BMP280;62384;53.600;10.040;2022-12-31T00:08:17;-3584.34;;;11.24
74043;BMP280;62384;53.600;10.040;2022-12-31T00:10:42;-3586.28;;;11.36
74043;BMP280;62384;53.600;10.040;2022-12-31T00:13:08;-2923.53;;;11.38
74043;BMP280;62384;53.600;10.040;2022-12-31T00:15:34;-2593.44;;;11.48
74043;BMP280;62384;53.600;10.040;2022-12-31T00:17:59;-2262.25;;;11.52
74043;BMP280;62384;53.600;10.040;2022-12-31T00:20:25;-1931.47;;;11.59
74043;BMP280;62384;53.600;10.040;2022-12-31T00:22:50;-1929.66;;;11.45
74043;BMP280;62384;53.600;10.040;2022-12-31T00:25:15;-1599.84;;;11.60
74043;BMP280;62384;53.600;10.040;2022-12-31T00:27:41;-1931.69;;;11.60
74043;BMP280;62384;53.600;10.040;2022-12-31T00:30:06;-1931.56;;;11.59
74043;BMP280;62384;53.600;10.040;2022-12-31T00:32:32;-1931.97;;;11.62
74043;BMP280;62384;53.600;10.040;2022-12-31T00:34:57;-1600.59;;;11.66
74043;BMP280;62384;53.600;10.040;2022-12-31T00:37:22;-1600.41;;;11.64
74043;BMP280;62384;53.600;10.040;2022-12-31T00:39:48;-1268.75;;;11.66
74043;BMP280;62384;53.600;10.040;2022-12-31T00:42:13;-937.34;;;11.71
74043;BMP280;62384;53.600;10.040;2022-12-31T00:44:38;-938.22;;;11.78
74043;BMP280;62384;53.600;10.040;2022-12-31T00:47:03;-273.44;;;11.72
74043;BMP280;62384;53.600;10.040;2022-12-31T00:49:29;-273.78;;;11.75
74043;BMP280;62384;53.600;10.040;2022-12-31T00:51:54;389.84;;;11.82
74043;BMP280;62384;53.600;10.040;2022-12-31T00:54:19;58.41;;;11.75
74043;BMP280;62384;53.600;10.040;2022-12-31T00:56:44;57.88;;;11.80
74043;BMP280;62384;53.600;10.040;2022-12-31T00:59:10;390.25;;;11.78
74043;BMP280;62384;53.600;10.040;2022-12-31T01:01:37;388.56;;;11.94
74043;BMP280;62384;53.600;10.040;2022-12-31T01:04:09;388.66;;;11.93
74043;BMP280;62384;53.600;10.040;2022-12-31T01:06:35;1052.72;;;12.00
74043;BMP280;62384;53.600;10.040;2022-12-31T01:09:00;721.47;;;11.88
74043;BMP280;62384;53.600;10.040;2022-12-31T01:11:26;389.19;;;11.88
74043;BMP280;62384;53.600;10.040;2022-12-31T01:14:04;388.31;;;11.97
74043;BMP280;62384;53.600;10.040;2022-12-31T01:16:33;57.16;;;11.86
74043;BMP280;62384;53.600;10.040;2022-12-31T01:19:03;55.81;;;11.99
74043;BMP280;62384;53.600;10.040;2022-12-31T01:21:29;719.47;;;12.09
74043;BMP280;62384;53.600;10.040;2022-12-31T01:23:57;1051.63;;;12.12
74043;BMP280;62384;53.600;10.040;2022-12-31T01:26:22;1384.22;;;12.10
74043;BMP280;62384;53.600;10.040;2022-12-31T01:28:48;1051.66;;;12.11
74043;BMP280;62384;53.600;10.040;2022-12-31T01:31:15;386.16;;;12.18
74043;BMP280;62384;53.600;10.040;2022-12-31T01:33:41;-610.50;;;12.14
74043;BMP280;62384;53.600;10.040;2022-12-31T01:36:12;-1938.69;;;12.10
74043;BMP280;62384;53.600;10.040;2022-12-31T01:38:38;-1937.94;;;12.05
74043;BMP280;62384;53.600;10.040;2022-12-31T01:41:04;-2600.47;;;11.95
74043;BMP280;62384;53.600;10.040;2022-12-31T01:43:53;-2603.25;;;12.13
74043;BMP280;62384;53.600;10.040;2022-12-31T01:46:35;-2603.94;;;12.18
74043;BMP280;62384;53.600;10.040;2022-12-31T01:49:09;-2935.41;;;12.14
74043;BMP280;62384;53.600;10.040;2022-12-31T01:51:38;-3599.22;;;12.14
74043;BMP280;62384;53.600;10.040;2022-12-31T01:54:06;-4261.78;;;12.07
74043;BMP280;62384;53.600;10.040;2022-12-31T01:56:33;-4925.28;;;12.07
74043;BMP280;62384;53.600;10.040;2022-12-31T01:59:00;-4924.72;;;12.04
74043;BMP280;62384;53.600;10.040;2022-12-31T02:01:28;-4594.47;;;12.12
74043;BMP280;62384;53.600;10.040;2022-12-31T02:03:55;-4925.28;;;12.07
74043;BMP280;62384;53.600;10.040;2022-12-31T02:06:28;-4594.09;;;12.10
74043;BMP280;62384;53.600;10.040;2022-12-31T02:08:56;-4594.28;;;12.11
74043;BMP280;62384;53.600;10.040;2022-12-31T02:11:29;-3930.31;;;12.09
74043;BMP280;62384;53.600;10.040;2022-12-31T02:13:59;-3267.06;;;12.12
74043;BMP280;62384;53.600;10.040;2022-12-31T02:22:20;-1940.59;;;12.24
74043;BMP280;62384;53.600;10.040;2022-12-31T02:27:46;-2273.53;;;12.30
74043;BMP280;62384;53.600;10.040;2022-12-31T02:30:20;-2936.66;;;12.23
74043;BMP280;62384;53.600;10.040;2022-12-31T02:33:07;-3268.34;;;12.20
74043;BMP280;62384;53.600;10.040;2022-12-31T02:35:54;-3600.72;;;12.23
74043;BMP280;62384;53.600;10.040;2022-12-31T02:38:26;-3931.78;;;12.18
74043;BMP280;62384;53.600;10.040;2022-12-31T02:40:55;-4595.94;;;12.20
74043;BMP280;62384;53.600;10.040;2022-12-31T02:43:20;-4596.66;;;12.25
74043;BMP280;62384;53.600;10.040;2022-12-31T02:45:58;-4597.78;;;12.31
74043;BMP280;62384;53.600;10.040;2022-12-31T02:48:47;-4929.44;;;12.30
74043;BMP280;62384;53.600;10.040;2022-12-31T02:51:36;-5591.78;;;12.24
74043;BMP280;62384;53.600;10.040;2022-12-31T02:54:42;-6586.09;;;12.20
74043;BMP280;62384;53.600;10.040;2022-12-31T02:57:14;-7247.56;;;12.13
74043;BMP280;62384;53.600;10.040;2022-12-31T03:00:04;-7577.72;;;12.08
74043;BMP280;62384;53.600;10.040;2022-12-31T03:02:50;-8238.59;;;12.00
74043;BMP280;62384;53.600;10.040;2022-12-31T03:05:17;-8570.72;;;12.04
74043;BMP280;62384;53.600;10.040;2022-12-31T03:07:44;-8900.53;;;11.98
74043;BMP280;62384;53.600;10.040;2022-12-31T03:10:10;-9229.88;;;11.91
74043;BMP280;62384;53.600;10.040;2022-12-31T03:12:35;-9559.09;;;11.84
74043;BMP280;62384;53.600;10.040;2022-12-31T03:15:18;-9560.69;;;11.90
74043;BMP280;62384;53.600;10.040;2022-12-31T03:20:19;-9559.34;;;11.85
74043;BMP280;62384;53.600;10.040;2022-12-31T03:23:09;-9559.63;;;11.86
74043;BMP280;62384;53.600;10.040;2022-12-31T03:25:35;-9556.84;;;11.76
74043;BMP280;62384;53.600;10.040;2022-12-31T03:28:05;-9557.13;;;11.77
74043;BMP280;62384;53.600;10.040;2022-12-31T03:30:31;-9554.75;;;11.68
74043;BMP280;62384;53.600;10.040;2022-12-31T03:32:57;-9555.53;;;11.71
74043;BMP280;62384;53.600;10.040;2022-12-31T03:35:24;-9556.19;;;11.73
74043;BMP280;62384;53.600;10.040;2022-12-31T03:37:51;-9556.47;;;11.74
74043;BMP280;62384;53.600;10.040;2022-12-31T03:40:19;-9555.13;;;11.69
74043;BMP280;62384;53.600;10.040;2022-12-31T03:42:44;-9554.22;;;11.66
74043;BMP280;62384;53.600;10.040;2022-12-31T03:45:10;-9554.34;;;11.66
74043;BMP280;62384;53.600;10.040;2022-12-31T03:47:36;-9553.28;;;11.62
74043;BMP280;62384;53.600;10.040;2022-12-31T03:50:02;-9554.34;;;11.66
74043;BMP280;62384;53.600;10.040;2022-12-31T03:52:27;-9552.25;;;11.58
74043;BMP280;62384;53.600;10.040;2022-12-31T03:54:52;-9552.38;;;11.59
74043;BMP280;62384;53.600;10.040;2022-12-31T03:57:18;-9551.97;;;11.57
74043;BMP280;62384;53.600;10.040;2022-12-31T03:59:43;-9551.19;;;11.54
74043;BMP280;62384;53.600;10.040;2022-12-31T04:02:08;-9550.53;;;11.52
74043;BMP280;62384;53.600;10.040;2022-12-31T04:04:33;-9550.66;;;11.52
74043;BMP280;62384;53.600;10.040;2022-12-31T04:06:59;-9550.81;;;11.53
74043;BMP280;62384;53.600;10.040;2022-12-31T04:09:24;-9551.06;;;11.54
74043;BMP280;62384;53.600;10.040;2022-12-31T04:11:49;-9550.41;;;11.51
74043;BMP280;62384;53.600;10.040;2022-12-31T04:14:15;-9550.94;;;11.53
74043;BMP280;62384;53.600;10.040;2022-12-31T04:16:41;-9550.94;;;11.53
74043;BMP280;62384;53.600;10.040;2022-12-31T04:19:07;-9551.06;;;11.54
74043;BMP280;62384;53.600;10.040;2022-12-31T04:21:32;-9551.72;;;11.56
74043;BMP280;62384;53.600;10.040;2022-12-31T04:23:57;-9552.25;;;11.58
74043;BMP280;62384;53.600;10.040;2022-12-31T04:26:22;-9553.28;;;11.62
74043;BMP280;62384;53.600;10.040;2022-12-31T04:28:48;-9553.69;;;11.64
74043;BMP280;62384;53.600;10.040;2022-12-31T04:31:13;-9552.25;;;11.58
74043;BMP280;62384;53.600;10.040;2022-12-31T04:33:38;-9553.28;;;11.62
74043;BMP280;62384;53.600;10.040;2022-12-31T04:36:06;-9555.81;;;11.72
74043;BMP280;62384;53.600;10.040;2022-12-31T04:38:32;-9556.47;;;11.74
74043;BMP280;62384;53.600;10.040;2022-12-31T04:40:58;-9552.38;;;11.59
74043;BMP280;62384;53.600;10.040;2022-12-31T04:43:43;-9555.81;;;11.72
74043;BMP280;62384;53.600;10.040;2022-12-31T04:46:08;-9554.34;;;11.66
74043;BMP280;62384;53.600;10.040;2022-12-31T04:48:34;-9556.34;;;11.74
74043;BMP280;62384;53.600;10.040;2022-12-31T04:50:59;-9557.00;;;11.76
74043;BMP280;62384;53.600;10.040;2022-12-31T04:53:25;-9557.25;;;11.77
74043;BMP280;62384;53.600;10.040;2022-12-31T04:55:51;-9556.84;;;11.76
74043;BMP280;62384;53.600;10.040;2022-12-31T04:58:16;-9556.72;;;11.75
74043;BMP280;62384;53.600;10.040;2022-12-31T05:00:41;-9556.19;;;11.73
74043;BMP280;62384;53.600;10.040;2022-12-31T05:03:08;-9555.41;;;11.70
74043;BMP280;62384;53.600;10.040;2022-12-31T05:05:37;-9557.13;;;11.77
74043;BMP280;62384;53.600;10.040;2022-12-31T05:08:02;-9555.94;;;11.72
74043;BMP280;62384;53.600;10.040;2022-12-31T05:10:28;-9556.06;;;11.73
74043;BMP280;62384;53.600;10.040;2022-12-31T05:12:53;-9555.41;;;11.70
74043;BMP280;62384;53.600;10.040;2022-12-31T05:15:18;-9555.94;;;11.72
74043;BMP280;62384;53.600;10.040;2022-12-31T05:17:43;-9556.06;;;11.73
74043;BMP280;62384;53.600;10.040;2022-12-31T05:20:09;-9556.06;;;11.73
74043;BMP280;62384;53.600;10.040;2022-12-31T05:22:34;-9554.09;;;11.65
74043;BMP280;62384;53.600;10.040;2022-12-31T05:24:59;-9553.81;;;11.64
74043;BMP280;62384;53.600;10.040;2022-12-31T05:27:26;-9555.13;;;11.69
74043;BMP280;62384;53.600;10.040;2022-12-31T05:29:51;-9553.03;;;11.61
74043;BMP280;62384;53.600;10.040;2022-12-31T05:32:16;-9553.56;;;11.63
74043;BMP280;62384;53.600;10.040;2022-12-31T05:34:42;-9553.28;;;11.62
74043;BMP280;62384;53.600;10.040;2022-12-31T05:37:08;-9554.63;;;11.67
74043;BMP280;62384;53.600;10.040;2022-12-31T05:39:33;-9553.44;;;11.63
74043;BMP280;62384;53.600;10.040;2022-12-31T05:41:58;-9552.38;;;11.59
74043;BMP280;62384;53.600;10.040;2022-12-31T05:44:23;-9551.59;;;11.56
74043;BMP280;62384;53.600;10.040;2022-12-31T05:46:48;-9549.88;;;11.49
74043;BMP280;62384;53.600;10.040;2022-12-31T05:49:14;-9549.47;;;11.47
74043;BMP280;62384;53.600;10.040;2022-12-31T05:51:39;-9549.63;;;11.48
74043;BMP280;62384;53.600;10.040;2022-12-31T05:54:04;-9549.09;;;11.46
74043;BMP280;62384;53.600;10.040;2022-12-31T05:56:30;-9550.41;;;11.51
74043;BMP280;62384;53.600;10.040;2022-12-31T05:58:55;-9548.44;;;11.43
74043;BMP280;62384;53.600;10.040;2022-12-31T06:01:21;-9547.78;;;11.41
74043;BMP280;62384;53.600;10.040;2022-12-31T06:03:46;-9546.44;;;11.36
74043;BMP280;62384;53.600;10.040;2022-12-31T06:06:11;-9547.25;;;11.39
74043;BMP280;62384;53.600;10.040;2022-12-31T06:08:37;-9546.59;;;11.36
74043;BMP280;62384;53.600;10.040;2022-12-31T06:11:02;-9546.31;;;11.35
74043;BMP280;62384;53.600;10.040;2022-12-31T06:13:27;-9545.94;;;11.34
74043;BMP280;62384;53.600;10.040;2022-12-31T06:15:53;-9545.66;;;11.33
74043;BMP280;62384;53.600;10.040;2022-12-31T06:18:18;-9544.75;;;11.29
74043;BMP280;62384;53.600;10.040;2022-12-31T06:20:43;-9545.13;;;11.31
74043;BMP280;62384;53.600;10.040;2022-12-31T06:23:08;-9546.44;;;11.36
74043;BMP280;62384;53.600;10.040;2022-12-31T06:25:34;-9546.19;;;11.35
74043;BMP280;62384;53.600;10.040;2022-12-31T06:28:01;-9545.66;;;11.33
74043;BMP280;62384;53.600;10.040;2022-12-31T06:30:26;-9544.59;;;11.29
74043;BMP280;62384;53.600;10.040;2022-12-31T06:32:51;-9544.59;;;11.29
74043;BMP280;62384;53.600;10.040;2022-12-31T06:35:17;-9544.75;;;11.29
74043;BMP280;62384;53.600;10.040;2022-12-31T06:37:42;-9543.16;;;11.23
74043;BMP280;62384;53.600;10.040;2022-12-31T06:40:08;-9544.34;;;11.28
74043;BMP280;62384;53.600;10.040;2022-12-31T06:42:33;-9542.09;;;11.19
74043;BMP280;62384;53.600;10.040;2022-12-31T06:44:58;-9540.78;;;11.14
74043;BMP280;62384;53.600;10.040;2022-12-31T06:47:24;-9541.97;;;11.19
74043;BMP280;62384;53.600;10.040;2022-12-31T06:49:49;-9541.72;;;11.18
74043;BMP280;62384;53.600;10.040;2022-12-31T06:52:15;-9540.94;;;11.15
74043;BMP280;62384;53.600;10.040;2022-12-31T06:54:41;-9542.78;;;11.22
74043;BMP280;62384;53.600;10.040;2022-12-31T06:57:08;-9542.09;;;11.19
74043;BMP280;62384;53.600;10.040;2022-12-31T06:59:34;-9541.19;;;11.16
74043;BMP280;62384;53.600;10.040;2022-12-31T07:04:57;-9541.06;;;11.15
74043;BMP280;62384;53.600;10.040;2022-12-31T07:07:48;-9541.59;;;11.17
74043;BMP280;62384;53.600;10.040;2022-12-31T07:10:42;-9539.88;;;11.11
74043;BMP280;62384;53.600;10.040;2022-12-31T07:16:06;-9539.22;;;11.08
74043;BMP280;62384;53.600;10.040;2022-12-31T07:18:54;-9539.59;;;11.10
74043;BMP280;62384;53.600;10.040;2022-12-31T07:21:31;-9536.72;;;10.99
74043;BMP280;62384;53.600;10.040;2022-12-31T07:23:57;-9536.97;;;11.00
74043;BMP280;62384;53.600;10.040;2022-12-31T07:29:09;-9539.22;;;11.08
74043;BMP280;62384;53.600;10.040;2022-12-31T07:35:03;-9539.47;;;11.09
74043;BMP280;62384;53.600;10.040;2022-12-31T07:37:50;-9538.94;;;11.07
74043;BMP280;62384;53.600;10.040;2022-12-31T07:40:17;-9536.97;;;11.00
74043;BMP280;62384;53.600;10.040;2022-12-31T07:45:38;-9538.44;;;11.05
74043;BMP280;62384;53.600;10.040;2022-12-31T07:48:17;-9536.97;;;11.00
74043;BMP280;62384;53.600;10.040;2022-12-31T07:50:45;-9535.38;;;10.94
74043;BMP280;62384;53.600;10.040;2022-12-31T07:53:10;-9537.25;;;11.01
74043;BMP280;62384;53.600;10.040;2022-12-31T07:55:36;-9536.59;;;10.98
74043;BMP280;62384;53.600;10.040;2022-12-31T07:58:07;-9537.63;;;11.02
74043;BMP280;62384;53.600;10.040;2022-12-31T08:00:38;-9536.31;;;10.97
74043;BMP280;62384;53.600;10.040;2022-12-31T08:03:22;-9537.50;;;11.02
74043;BMP280;62384;53.600;10.040;2022-12-31T08:06:11;-9537.09;;;11.00
74043;BMP280;62384;53.600;10.040;2022-12-31T08:08:49;-9536.84;;;10.99
74043;BMP280;62384;53.600;10.040;2022-12-31T08:11:47;-9537.75;;;11.03
74043;BMP280;62384;53.600;10.040;2022-12-31T08:14:17;-9537.09;;;11.00
74043;BMP280;62384;53.600;10.040;2022-12-31T08:16:43;-9536.84;;;10.99
74043;BMP280;62384;53.600;10.040;2022-12-31T08:19:29;-9538.56;;;11.06
74043;BMP280;62384;53.600;10.040;2022-12-31T08:22:04;-9537.50;;;11.02
74043;BMP280;62384;53.600;10.040;2022-12-31T08:35:46;-9542.09;;;11.19
74043;BMP280;62384;53.600;10.040;2022-12-31T08:43:55;-9543.69;;;11.25
74043;BMP280;62384;53.600;10.040;2022-12-31T08:46:29;-9544.59;;;11.29
74043;BMP280;62384;53.600;10.040;2022-12-31T08:48:55;-9545.41;;;11.32
74043;BMP280;62384;53.600;10.040;2022-12-31T08:51:22;-9546.44;;;11.36
74043;BMP280;62384;53.600;10.040;2022-12-31T08:53:49;-9545.13;;;11.31
74043;BMP280;62384;53.600;10.040;2022-12-31T08:56:35;-9546.59;;;11.36
74043;BMP280;62384;53.600;10.040;2022-12-31T08:59:38;-9545.66;;;11.33
74043;BMP280;62384;53.600;10.040;2022-12-31T09:05:18;-9548.56;;;11.44
74043;BMP280;62384;53.600;10.040;2022-12-31T09:07:53;-9548.28;;;11.43
74043;BMP280;62384;53.600;10.040;2022-12-31T09:10:28;-9547.38;;;11.39
74043;BMP280;62384;53.600;10.040;2022-12-31T09:15:52;-9549.88;;;11.49
74043;BMP280;62384;53.600;10.040;2022-12-31T09:18:23;-9548.81;;;11.45
74043;BMP280;62384;53.600;10.040;2022-12-31T09:20:48;-9549.63;;;11.48
74043;BMP280;62384;53.600;10.040;2022-12-31T09:23:14;-9549.34;;;11.47
74043;BMP280;62384;53.600;10.040;2022-12-31T09:25:47;-9551.72;;;11.56
74043;BMP280;62384;53.600;10.040;2022-12-31T09:30:54;-9553.56;;;11.63
74043;BMP280;62384;53.600;10.040;2022-12-31T09:33:33;-9554.50;;;11.67
74043;BMP280;62384;53.600;10.040;2022-12-31T09:36:03;-9551.97;;;11.57
74043;BMP280;62384;53.600;10.040;2022-12-31T09:41:14;-9554.63;;;11.67
74043;BMP280;62384;53.600;10.040;2022-12-31T09:53:22;-9554.22;;;11.66
74043;BMP280;62384;53.600;10.040;2022-12-31T09:55:58;-9553.03;;;11.61
74043;BMP280;62384;53.600;10.040;2022-12-31T10:01:54;-9553.28;;;11.62
74043;BMP280;62384;53.600;10.040;2022-12-31T10:04:47;-9553.44;;;11.63
74043;BMP280;62384;53.600;10.040;2022-12-31T10:07:27;-9551.84;;;11.57
74043;BMP280;62384;53.600;10.040;2022-12-31T10:10:17;-9552.50;;;11.59
74043;BMP280;62384;53.600;10.040;2022-12-31T10:13:03;-9553.44;;;11.63
74043;BMP280;62384;53.600;10.040;2022-12-31T10:21:20;-9555.13;;;11.69
74043;BMP280;62384;53.600;10.040;2022-12-31T10:23:58;-9555.81;;;11.72
74043;BMP280;62384;53.600;10.040;2022-12-31T10:29:33;-9557.78;;;11.79
74043;BMP280;62384;53.600;10.040;2022-12-31T10:32:42;-9558.31;;;11.81
74043;BMP280;62384;53.600;10.040;2022-12-31T10:35:41;-9559.22;;;11.85
74043;BMP280;62384;53.600;10.040;2022-12-31T10:38:21;-9559.09;;;11.84
74043;BMP280;62384;53.600;10.040;2022-12-31T10:44:02;-9560.81;;;11.91
74043;BMP280;62384;53.600;10.040;2022-12-31T10:46:57;-9561.59;;;11.94
74043;BMP280;62384;53.600;10.040;2022-12-31T10:52:54;-9562.25;;;11.96
74043;BMP280;62384;53.600;10.040;2022-12-31T10:55:51;-9563.19;;;12.00
74043;BMP280;62384;53.600;10.040;2022-12-31T11:01:19;-9565.41;;;12.08
74043;BMP280;62384;53.600;10.040;2022-12-31T11:06:57;-9568.44;;;12.20
74043;BMP280;62384;53.600;10.040;2022-12-31T11:09:43;-9568.84;;;12.21
74043;BMP280;62384;53.600;10.040;2022-12-31T11:12:42;-9569.63;;;12.25
74043;BMP280;62384;53.600;10.040;2022-12-31T11:15:29;-9570.94;;;12.30
74043;BMP280;62384;53.600;10.040;2022-12-31T11:18:21;-9571.75;;;12.33
74043;BMP280;62384;53.600;10.040;2022-12-31T11:21:17;-9573.19;;;12.38
74043;BMP280;62384;53.600;10.040;2022-12-31T11:24:04;-9574.63;;;12.44
74043;BMP280;62384;53.600;10.040;2022-12-31T11:32:10;-9579.63;;;12.63
74043;BMP280;62384;53.600;10.040;2022-12-31T11:40:46;-9586.22;;;12.88
74043;BMP280;62384;53.600;10.040;2022-12-31T11:43:38;-9590.31;;;13.04
74043;BMP280;62384;53.600;10.040;2022-12-31T11:49:16;-9594.13;;;13.18
74043;BMP280;62384;53.600;10.040;2022-12-31T11:54:36;-9596.38;;;13.27
74043;BMP280;62384;53.600;10.040;2022-12-31T11:57:26;-9598.09;;;13.33
74043;BMP280;62384;53.600;10.040;2022-12-31T11:59:56;-9597.94;;;13.33
74043;BMP280;62384;53.600;10.040;2022-12-31T12:02:27;-9596.91;;;13.29
74043;BMP280;62384;53.600;10.040;2022-12-31T12:04:54;-9599.13;;;13.37
74043;BMP280;62384;53.600;10.040;2022-12-31T12:07:21;-9600.06;;;13.41
74043;BMP280;62384;53.600;10.040;2022-12-31T12:09:48;-9600.72;;;13.43
74043;BMP280;62384;53.600;10.040;2022-12-31T12:12:15;-9602.56;;;13.50
74043;BMP280;62384;53.600;10.040;2022-12-31T12:14:42;-9278.53;;;13.81
74043;BMP280;62384;53.600;10.040;2022-12-31T12:17:16;-7952.16;;;13.91
74043;BMP280;62384;53.600;10.040;2022-12-31T12:19:53;-7289.28;;;13.99
74043;BMP280;62384;53.600;10.040;2022-12-31T12:22:21;-7287.22;;;13.90
74043;BMP280;62384;53.600;10.040;2022-12-31T12:24:55;-6956.16;;;13.96
74043;BMP280;62384;53.600;10.040;2022-12-31T12:27:23;-6293.53;;;14.08
74043;BMP280;62384;53.600;10.040;2022-12-31T12:29:48;-6626.78;;;14.11
74043;BMP280;62384;53.600;10.040;2022-12-31T12:32:16;-5962.44;;;14.15
74043;BMP280;62384;53.600;10.040;2022-12-31T12:34:43;-5298.53;;;14.23
74043;BMP280;62384;53.600;10.040;2022-12-31T12:37:30;-5297.56;;;14.18
74043;BMP280;62384;53.600;10.040;2022-12-31T12:40:02;-5294.94;;;14.05
74043;BMP280;62384;53.600;10.040;2022-12-31T12:42:29;-5626.66;;;14.00
74043;BMP280;62384;53.600;10.040;2022-12-31T12:45:05;-5295.06;;;14.05
74043;BMP280;62384;53.600;10.040;2022-12-31T12:47:32;-5294.28;;;14.01
74043;BMP280;62384;53.600;10.040;2022-12-31T12:49:58;-5293.31;;;13.96
74043;BMP280;62384;53.600;10.040;2022-12-31T12:52:46;-4298.41;;;14.15
74043;BMP280;62384;53.600;10.040;2022-12-31T12:55:22;-3632.88;;;14.17
74043;BMP280;62384;53.600;10.040;2022-12-31T13:01:37;-4962.22;;;14.05
74043;BMP280;62384;53.600;10.040;2022-12-31T13:04:13;-4961.56;;;14.01
74043;BMP280;62384;53.600;10.040;2022-12-31T13:07:06;-5294.66;;;14.03
74043;BMP280;62384;53.600;10.040;2022-12-31T13:09:43;-4628.44;;;13.99
74043;BMP280;62384;53.600;10.040;2022-12-31T13:15:19;-5627.06;;;14.02
74043;BMP280;62384;53.600;10.040;2022-12-31T13:18:06;-5627.06;;;14.02
74043;BMP280;62384;53.600;10.040;2022-12-31T13:20:49;-5626.94;;;14.01
74043;BMP280;62384;53.600;10.040;2022-12-31T13:23:35;-5627.25;;;14.03
74043;BMP280;62384;53.600;10.040;2022-12-31T13:26:34;-5627.25;;;14.03
74043;BMP280;62384;53.600;10.040;2022-12-31T13:29:02;-5628.25;;;14.08
74043;BMP280;62384;53.600;10.040;2022-12-31T13:31:32;-5959.28;;;14.00
74043;BMP280;62384;53.600;10.040;2022-12-31T13:34:13;-6291.88;;;14.00
74043;BMP280;62384;53.600;10.040;2022-12-31T13:36:40;-5960.59;;;14.06
74043;BMP280;62384;53.600;10.040;2022-12-31T13:39:15;-6293.22;;;14.06
74043;BMP280;62384;53.600;10.040;2022-12-31T13:41:47;-6293.44;;;14.07
74043;BMP280;62384;53.600;10.040;2022-12-31T13:44:33;-6957.81;;;14.04
74043;BMP280;62384;53.600;10.040;2022-12-31T13:47:13;-7621.56;;;13.99
74043;BMP280;62384;53.600;10.040;2022-12-31T13:49:50;-7621.34;;;13.98
74043;BMP280;62384;53.600;10.040;2022-12-31T13:52:33;-8284.47;;;13.91
74043;BMP280;62384;53.600;10.040;2022-12-31T13:55:11;-7952.53;;;13.93
74043;BMP280;62384;53.600;10.040;2022-12-31T14:05:54;-7951.81;;;13.90
74043;BMP280;62384;53.600;10.040;2022-12-31T14:08:21;-7952.28;;;13.92
74043;BMP280;62384;53.600;10.040;2022-12-31T14:19:19;-8615.34;;;13.86
74043;BMP280;62384;53.600;10.040;2022-12-31T14:21:53;-8948.03;;;13.88
74043;BMP280;62384;53.600;10.040;2022-12-31T14:27:09;-8950.56;;;13.98
74043;BMP280;62384;53.600;10.040;2022-12-31T14:29:38;-8948.69;;;13.90
74043;BMP280;62384;53.600;10.040;2022-12-31T14:32:19;-9282.25;;;13.96
74043;BMP280;62384;53.600;10.040;2022-12-31T14:35:25;-9282.41;;;13.96
74043;BMP280;62384;53.600;10.040;2022-12-31T14:45:51;-9283.56;;;14.01
74043;BMP280;62384;53.600;10.040;2022-12-31T14:48:42;-9287.03;;;14.14
74043;BMP280;62384;53.600;10.040;2022-12-31T14:51:10;-8953.88;;;14.11
74043;BMP280;62384;53.600;10.040;2022-12-31T14:53:36;-9284.47;;;14.04
74043;BMP280;62384;53.600;10.040;2022-12-31T14:59:00;-9616.94;;;14.05
74043;BMP280;62384;53.600;10.040;2022-12-31T15:01:26;-9617.84;;;14.09
74043;BMP280;62384;53.600;10.040;2022-12-31T15:03:54;-9619.56;;;14.15
74043;BMP280;62384;53.600;10.040;2022-12-31T15:20:31;-9612.31;;;13.88
74043;BMP280;62384;53.600;10.040;2022-12-31T15:23:00;-9605.47;;;13.61
74043;BMP280;62384;53.600;10.040;2022-12-31T15:25:29;-9609.16;;;13.76
74043;BMP280;62384;53.600;10.040;2022-12-31T15:27:57;-9611.25;;;13.84
74043;BMP280;62384;53.600;10.040;2022-12-31T15:30:33;-9610.47;;;13.81
74043;BMP280;62384;53.600;10.040;2022-12-31T15:33:06;-9604.41;;;13.57
74043;BMP280;62384;53.600;10.040;2022-12-31T15:35:48;-9609.16;;;13.76
74043;BMP280;62384;53.600;10.040;2022-12-31T15:40:50;-9609.53;;;13.77
74043;BMP280;62384;53.600;10.040;2022-12-31T15:43:19;-9608.34;;;13.73
74043;BMP280;62384;53.600;10.040;2022-12-31T15:45:56;-9608.09;;;13.71
74043;BMP280;62384;53.600;10.040;2022-12-31T15:50:53;-9606.66;;;13.66
74043;BMP280;62384;53.600;10.040;2022-12-31T15:53:31;-9606.50;;;13.65
74043;BMP280;62384;53.600;10.040;2022-12-31T15:55:58;-9606.25;;;13.64
74043;BMP280;62384;53.600;10.040;2022-12-31T15:58:32;-9605.47;;;13.61
74043;BMP280;62384;53.600;10.040;2022-12-31T16:01:13;-9603.34;;;13.53
74043;BMP280;62384;53.600;10.040;2022-12-31T16:03:47;-9604.94;;;13.59
74043;BMP280;62384;53.600;10.040;2022-12-31T16:06:14;-9604.41;;;13.57
74043;BMP280;62384;53.600;10.040;2022-12-31T16:08:45;-9598.88;;;13.36
74043;BMP280;62384;53.600;10.040;2022-12-31T16:11:11;-9602.03;;;13.48
74043;BMP280;62384;53.600;10.040;2022-12-31T16:13:44;-9604.16;;;13.56
74043;BMP280;62384;53.600;10.040;2022-12-31T16:16:25;-9604.41;;;13.57
74043;BMP280;62384;53.600;10.040;2022-12-31T16:18:51;-9602.69;;;13.51
74043;BMP280;62384;53.600;10.040;2022-12-31T16:21:37;-9598.22;;;13.34
74043;BMP280;62384;53.600;10.040;2022-12-31T16:26:50;-9601.25;;;13.45
74043;BMP280;62384;53.600;10.040;2022-12-31T16:29:18;-9600.84;;;13.44
74043;BMP280;62384;53.600;10.040;2022-12-31T16:31:45;-9601.25;;;13.45
74043;BMP280;62384;53.600;10.040;2022-12-31T16:34:16;-9599.94;;;13.40
74043;BMP280;62384;53.600;10.040;2022-12-31T16:36:42;-9596.38;;;13.27
74043;BMP280;62384;53.600;10.040;2022-12-31T16:39:24;-9600.06;;;13.41
74043;BMP280;62384;53.600;10.040;2022-12-31T16:41:51;-9598.88;;;13.36
74043;BMP280;62384;53.600;10.040;2022-12-31T16:44:27;-9598.09;;;13.33
74043;BMP280;62384;53.600;10.040;2022-12-31T16:46:59;-9596.75;;;13.28
74043;BMP280;62384;53.600;10.040;2022-12-31T16:49:28;-9597.16;;;13.30
74043;BMP280;62384;53.600;10.040;2022-12-31T16:51:58;-9595.97;;;13.25
74043;BMP280;62384;53.600;10.040;2022-12-31T16:54:29;-9595.44;;;13.23
74043;BMP280;62384;53.600;10.040;2022-12-31T16:56:56;-9594.91;;;13.21
74043;BMP280;62384;53.600;10.040;2022-12-31T16:59:42;-9594.91;;;13.21
74043;BMP280;62384;53.600;10.040;2022-12-31T17:02:15;-9595.31;;;13.23
74043;BMP280;62384;53.600;10.040;2022-12-31T17:04:46;-9594.13;;;13.18
74043;BMP280;62384;53.600;10.040;2022-12-31T17:12:31;-9593.22;;;13.15
74043;BMP280;62384;53.600;10.040;2022-12-31T17:15:03;-9593.75;;;13.17